Time;durP1;ratioP1;P1;durP2;ratioP2;P2;SDS_P1;SDS_P2;PMS_P1;PMS_P2;Temp;Humidity;BMP_temperature;BMP_pressure;BME280_temperature;BME280_humidity;BME280_pressure;Samples;Min_cycle;Max_cycle;Signal;HPM_P1;HPM_P2
2021/12/11 00:01:55;;;;;;;2.03;1.27;;;4.30;93.00;;;;;;5046831;28;20227;-78
2021/12/11 00:04:28;;;;;;;3.17;1.50;;;4.30;93.00;;;;;;5034437;28;20208;-80
2021/12/11 00:06:56;;;;;;;1.52;1.42;;;4.30;93.00;;;;;;5028608;28;20196;-79
2021/12/11 00:09:28;;;;;;;1.73;1.38;;;4.30;92.80;;;;;;5024989;28;20203;-81
2021/12/11 00:12:00;;;;;;;2.08;1.20;;;4.30;92.50;;;;;;5022238;28;20231;-80
2021/12/11 00:14:29;;;;;;;2.65;1.30;;;4.30;92.30;;;;;;5027370;28;20612;-81
2021/12/11 00:16:57;;;;;;;1.33;1.20;;;4.30;92.40;;;;;;5037454;28;20211;-80
2021/12/11 00:19:27;;;;;;;2.78;1.38;;;4.30;92.40;;;;;;5027261;28;20204;-81
2021/12/11 00:21:55;;;;;;;1.60;1.50;;;4.30;92.10;;;;;;5018076;28;20232;-79
2021/12/11 00:24:29;;;;;;;2.30;2.10;;;4.30;92.70;;;;;;5025780;28;20209;-79
2021/12/11 00:27:02;;;;;;;2.67;1.50;;;4.30;92.90;;;;;;5036873;28;20214;-80
2021/12/11 00:29:32;;;;;;;2.90;1.92;;;4.30;93.20;;;;;;5036769;28;20265;-79
2021/12/11 00:32:02;;;;;;;2.30;2.10;;;4.30;93.40;;;;;;5037024;28;20234;-80
2021/12/11 00:34:29;;;;;;;6.57;1.92;;;4.30;93.10;;;;;;5029894;28;20195;-80
2021/12/11 00:36:59;;;;;;;1.88;1.77;;;4.30;93.20;;;;;;5017603;28;20239;-79
2021/12/11 00:39:29;;;;;;;2.88;1.70;;;4.20;93.10;;;;;;5022990;28;20226;-81
2021/12/11 00:42:00;;;;;;;2.20;1.48;;;4.20;93.50;;;;;;5038098;28;20227;-80
2021/12/11 00:44:35;;;;;;;2.40;2.10;;;4.10;93.20;;;;;;5037300;28;20275;-78
2021/12/11 00:47:08;;;;;;;2.22;1.90;;;4.10;93.10;;;;;;5037860;28;20182;-79
2021/12/11 00:49:35;;;;;;;2.67;1.95;;;4.10;93.00;;;;;;5040898;28;20210;-78
2021/12/11 00:52:02;;;;;;;2.78;2.20;;;4.10;92.90;;;;;;5051846;28;20233;-79
2021/12/11 00:54:39;;;;;;;3.47;1.90;;;4.10;93.00;;;;;;5026899;28;20271;-80
2021/12/11 00:57:06;;;;;;;2.42;2.08;;;4.10;93.00;;;;;;5016596;28;20566;-80
2021/12/11 00:59:33;;;;;;;2.20;2.00;;;4.10;92.80;;;;;;5029230;28;20358;-80
2021/12/11 01:02:03;;;;;;;2.05;1.90;;;4.10;92.90;;;;;;5036359;28;20231;-79
2021/12/11 01:04:33;;;;;;;2.47;2.08;;;4.00;92.90;;;;;;5025828;28;20204;-80
2021/12/11 01:07:03;;;;;;;2.28;2.03;;;4.10;92.70;;;;;;5017333;28;20298;-80
2021/12/11 01:09:38;;;;;;;3.50;2.20;;;4.10;92.40;;;;;;5029956;28;20263;-81
2021/12/11 01:12:12;;;;;;;2.42;2.22;;;4.00;92.30;;;;;;5048502;28;20254;-81
2021/12/11 01:14:51;;;;;;;2.00;1.90;;;4.00;92.40;;;;;;5037517;28;20203;-79
2021/12/11 01:17:25;;;;;;;2.97;2.30;;;4.00;92.30;;;;;;5040564;28;20206;-80
2021/12/11 01:19:59;;;;;;;2.28;2.10;;;4.00;92.10;;;;;;5042638;28;20215;-80
2021/12/11 01:22:33;;;;;;;2.97;2.67;;;4.00;92.50;;;;;;5043975;28;20301;-80
2021/12/11 01:25:06;;;;;;;2.47;2.10;;;4.00;92.80;;;;;;5030951;28;20250;-79
2021/12/11 01:27:34;;;;;;;3.70;2.83;;;4.00;92.80;;;;;;5023324;28;20211;-80
2021/12/11 01:30:01;;;;;;;2.88;2.47;;;3.90;92.90;;;;;;5021205;28;20294;-79
2021/12/11 01:32:31;;;;;;;2.97;2.45;;;3.90;93.10;;;;;;5016533;28;20319;-80
2021/12/11 01:35:00;;;;;;;2.90;2.70;;;3.90;93.20;;;;;;5023059;28;20295;-79
2021/12/11 01:37:28;;;;;;;4.70;2.90;;;3.90;93.40;;;;;;5028342;28;20261;-80
2021/12/11 01:39:55;;;;;;;3.75;2.45;;;3.90;93.60;;;;;;5024683;28;20254;-80
2021/12/11 01:42:27;;;;;;;3.35;3.05;;;3.90;93.80;;;;;;5016554;28;20291;-79
2021/12/11 01:44:56;;;;;;;2.78;2.47;;;3.90;93.70;;;;;;5017228;28;20204;-80
2021/12/11 01:47:28;;;;;;;3.15;2.63;;;3.90;93.60;;;;;;5016042;28;20210;-80
2021/12/11 01:49:58;;;;;;;3.05;2.75;;;3.90;93.50;;;;;;5030435;28;20671;-79
2021/12/11 01:52:34;;;;;;;3.45;3.15;;;3.90;93.50;;;;;;5044593;28;20284;-79
2021/12/11 01:55:04;;;;;;;3.20;2.85;;;3.90;93.50;;;;;;5027822;28;20212;-80
2021/12/11 01:57:33;;;;;;;4.35;2.88;;;3.90;93.50;;;;;;5020217;28;20208;-81
2021/12/11 02:00:08;;;;;;;4.45;2.95;;;4.00;93.30;;;;;;5042560;28;20267;-79
2021/12/11 02:02:41;;;;;;;3.25;2.95;;;3.90;93.10;;;;;;5027628;28;20294;-80
2021/12/11 02:05:10;;;;;;;2.90;2.63;;;3.90;93.00;;;;;;5034670;28;20203;-79
2021/12/11 02:07:40;;;;;;;4.15;3.17;;;3.90;92.60;;;;;;5039243;28;20213;-79
2021/12/11 02:10:18;;;;;;;3.95;2.50;;;4.00;92.20;;;;;;5038083;28;20219;-80
2021/12/11 02:12:48;;;;;;;3.17;2.80;;;4.00;91.80;;;;;;5037857;28;20310;-81
2021/12/11 02:15:24;;;;;;;2.88;2.65;;;4.00;91.20;;;;;;5025115;28;20208;-78
2021/12/11 02:18:00;;;;;;;2.75;2.55;;;4.00;90.30;;;;;;5038697;28;20190;-79
2021/12/11 02:23:29;;;;;;;4.05;2.60;;;4.00;88.30;;;;;;5049752;28;20199;-78
2021/12/11 02:26:51;;;;;;;2.47;2.28;;;4.00;86.50;;;;;;5049381;28;20211;-80
2021/12/11 02:29:25;;;;;;;1.95;1.85;;;3.90;86.60;;;;;;5041021;28;20227;-80
2021/12/11 02:32:00;;;;;;;5.32;2.40;;;3.80;85.80;;;;;;5040044;28;20241;-77
2021/12/11 02:34:37;;;;;;;2.42;2.22;;;3.80;86.50;;;;;;5056861;28;20202;-78
2021/12/11 02:37:13;;;;;;;2.85;2.65;;;3.70;86.70;;;;;;5056732;28;20218;-79
2021/12/11 02:39:46;;;;;;;2.20;2.00;;;3.70;87.00;;;;;;5056425;28;20203;-78
2021/12/11 02:42:19;;;;;;;2.78;2.58;;;3.60;88.10;;;;;;5056657;28;20223;-79
2021/12/11 02:44:49;;;;;;;2.30;2.10;;;3.60;88.70;;;;;;5042517;28;20235;-78
2021/12/11 02:47:22;;;;;;;2.95;2.65;;;3.50;89.20;;;;;;5036947;28;20212;-78
2021/12/11 02:49:54;;;;;;;3.58;2.33;;;3.50;90.10;;;;;;5033157;28;20334;-79
2021/12/11 02:52:23;;;;;;;2.55;2.25;;;3.40;90.40;;;;;;5034597;28;20271;-78
2021/12/11 02:54:57;;;;;;;3.05;2.85;;;3.40;90.90;;;;;;5033738;28;20246;-79
2021/12/11 02:57:28;;;;;;;3.28;2.97;;;3.40;91.30;;;;;;5041051;28;20240;-79
2021/12/11 02:59:55;;;;;;;3.47;2.83;;;3.40;91.80;;;;;;5054025;28;20333;-78
2021/12/11 03:02:29;;;;;;;3.00;2.80;;;3.40;92.30;;;;;;5056689;28;20241;-78
2021/12/11 03:05:07;;;;;;;3.00;2.72;;;3.40;92.80;;;;;;5054102;28;20231;-79
2021/12/11 03:07:37;;;;;;;3.25;2.95;;;3.40;92.70;;;;;;5057595;28;20195;-77
2021/12/11 03:10:09;;;;;;;3.25;2.95;;;3.40;92.70;;;;;;5047667;28;20200;-79
2021/12/11 03:12:35;;;;;;;3.47;3.17;;;3.40;93.10;;;;;;5030844;28;20330;-79
2021/12/11 03:15:03;;;;;;;3.97;3.28;;;3.40;93.50;;;;;;5034707;28;20205;-80
2021/12/11 03:17:30;;;;;;;3.53;2.92;;;3.50;93.30;;;;;;5046850;28;20211;-79
2021/12/11 03:19:57;;;;;;;3.42;3.15;;;3.50;93.50;;;;;;5047399;28;20286;-79
2021/12/11 03:22:30;;;;;;;3.58;3.28;;;3.50;93.40;;;;;;5050899;28;20259;-78
2021/12/11 03:24:57;;;;;;;4.25;3.85;;;3.50;93.40;;;;;;5038550;28;20231;-79
2021/12/11 03:27:26;;;;;;;11.32;4.07;;;3.50;92.90;;;;;;5035467;28;20242;-79
2021/12/11 03:29:53;;;;;;;3.92;3.53;;;3.50;93.00;;;;;;5035355;28;20242;-78
2021/12/11 03:32:21;;;;;;;4.07;3.70;;;3.50;92.90;;;;;;5032872;28;20270;-80
2021/12/11 04:11:55;;;;;;;6.18;5.45;;;3.60;93.00;;;;;;5161322;22;20241;-76
2021/12/11 04:14:30;;;;;;;7.20;5.57;;;3.60;92.90;;;;;;5037129;28;20289;-77
2021/12/11 04:17:01;;;;;;;7.63;6.10;;;3.50;93.00;;;;;;5036584;28;20496;-79
2021/12/11 04:19:29;;;;;;;7.50;6.70;;;3.50;93.70;;;;;;5041081;28;20218;-77
2021/12/11 04:21:59;;;;;;;9.43;6.68;;;3.50;94.00;;;;;;5037207;28;20311;-77
2021/12/11 04:24:33;;;;;;;9.25;7.63;;;3.60;94.50;;;;;;5036467;28;20207;-78
2021/12/11 04:27:06;;;;;;;7.68;6.85;;;3.50;94.60;;;;;;5074875;22;20234;-78
2021/12/11 04:29:33;;;;;;;8.20;7.35;;;3.60;94.60;;;;;;5007211;28;20201;-79
2021/12/11 04:32:02;;;;;;;8.38;6.78;;;3.60;94.70;;;;;;4998805;28;20247;-78
2021/12/11 04:34:30;;;;;;;7.57;6.50;;;3.60;94.60;;;;;;5009168;28;20267;-77
2021/12/11 04:37:01;;;;;;;9.30;7.10;;;3.60;94.60;;;;;;5034541;28;20231;-77
2021/12/11 04:39:34;;;;;;;7.85;7.03;;;3.60;94.60;;;;;;5036487;28;20294;-78
2021/12/11 04:42:14;;;;;;;8.43;7.53;;;3.60;94.50;;;;;;5017928;28;20235;-78
2021/12/11 04:44:45;;;;;;;8.40;7.25;;;3.60;94.60;;;;;;5031587;28;20257;-78
2021/12/11 04:47:27;;;;;;;9.07;7.07;;;3.70;94.40;;;;;;5039777;28;20239;-78
2021/12/11 04:49:58;;;;;;;7.90;7.05;;;3.70;94.20;;;;;;5043022;28;20223;-77
2021/12/11 04:52:33;;;;;;;9.90;7.25;;;3.70;94.10;;;;;;5041767;28;20237;-77
2021/12/11 04:55:16;;;;;;;9.90;7.63;;;3.60;94.00;;;;;;5027113;28;20265;-78
2021/12/11 05:00:56;;;;;;;8.35;7.00;;;3.60;94.10;;;;;;4989165;28;20204;-77
2021/12/11 05:03:47;;;;;;;10.52;7.53;;;3.70;94.10;;;;;;5006865;28;20195;-78
2021/12/11 05:06:27;;;;;;;10.43;7.70;;;3.60;94.30;;;;;;5034473;28;20238;-78
2021/12/11 05:11:57;;;;;;;9.52;8.45;;;3.80;94.70;;;;;;4974079;28;20217;-77
2021/12/11 05:14:26;;;;;;;10.75;8.65;;;3.80;94.90;;;;;;5022177;28;20207;-78
2021/12/11 05:16:54;;;;;;;10.95;7.65;;;3.80;94.70;;;;;;5035761;28;20314;-77
2021/12/11 05:19:21;;;;;;;9.30;7.55;;;3.80;94.70;;;;;;5027437;28;20625;-78
2021/12/11 05:21:48;;;;;;;11.10;9.48;;;3.80;94.60;;;;;;5018509;28;20207;-78
2021/12/11 05:24:17;;;;;;;11.52;9.10;;;3.70;94.50;;;;;;5019773;28;20307;-78
2021/12/11 05:26:44;;;;;;;10.05;7.93;;;3.70;94.50;;;;;;5015282;28;20794;-78
2021/12/11 05:29:11;;;;;;;10.48;8.75;;;3.70;94.50;;;;;;5015237;28;20210;-78
2021/12/11 05:31:39;;;;;;;10.63;9.25;;;3.80;94.20;;;;;;5016899;28;20274;-79
2021/12/11 05:34:07;;;;;;;12.15;8.63;;;3.70;94.10;;;;;;5017844;28;20605;-77
2021/12/11 05:36:37;;;;;;;12.23;8.82;;;3.70;93.80;;;;;;5018006;28;20318;-78
2021/12/11 05:39:08;;;;;;;11.13;9.13;;;3.80;93.90;;;;;;5035241;28;20241;-77
2021/12/11 05:41:36;;;;;;;11.93;8.82;;;3.80;93.50;;;;;;5042269;28;20302;-79
2021/12/11 05:44:03;;;;;;;11.52;9.05;;;3.80;93.20;;;;;;5040604;28;20199;-78
2021/12/11 05:46:31;;;;;;;11.88;8.10;;;3.80;93.30;;;;;;5039238;28;20256;-78
2021/12/11 05:48:59;;;;;;;12.15;9.02;;;3.70;93.20;;;;;;5024831;28;20210;-78
2021/12/11 05:51:26;;;;;;;11.52;9.13;;;3.80;93.10;;;;;;5024077;28;20215;-78
2021/12/11 05:53:56;;;;;;;11.90;9.00;;;3.80;93.00;;;;;;5028197;28;20251;-78
2021/12/11 05:56:23;;;;;;;10.00;8.75;;;3.80;92.90;;;;;;5027561;28;20287;-78
2021/12/11 05:58:57;;;;;;;12.93;10.02;;;3.80;93.00;;;;;;5041902;28;20298;-79
2021/12/11 06:01:31;;;;;;;12.48;9.43;;;3.80;93.00;;;;;;5042687;28;20213;-78
2021/12/11 06:04:01;;;;;;;11.85;9.88;;;3.90;92.80;;;;;;5042746;28;20246;-77
2021/12/11 06:06:28;;;;;;;12.18;9.95;;;3.90;92.50;;;;;;5046441;28;20662;-77
2021/12/11 06:08:57;;;;;;;12.02;10.00;;;3.80;92.30;;;;;;5056671;28;20209;-78
2021/12/11 06:11:24;;;;;;;12.35;9.60;;;3.80;92.50;;;;;;5054925;28;20203;-77
2021/12/11 06:13:51;;;;;;;13.07;9.80;;;3.90;92.40;;;;;;5054608;28;20226;-79
2021/12/11 06:16:19;;;;;;;13.75;10.32;;;3.80;92.20;;;;;;5044851;28;20284;-78
2021/12/11 06:18:46;;;;;;;12.77;9.10;;;3.80;92.40;;;;;;5018025;28;20208;-78
2021/12/11 06:21:15;;;;;;;16.75;10.10;;;3.90;92.70;;;;;;5017877;28;20290;-78
2021/12/11 06:23:43;;;;;;;15.13;9.35;;;3.90;92.50;;;;;;5018088;28;20228;-77
2021/12/11 06:26:11;;;;;;;11.80;9.82;;;3.90;93.00;;;;;;5018167;28;20322;-78
2021/12/11 06:28:39;;;;;;;13.70;11.20;;;3.90;92.90;;;;;;5018023;28;20667;-77
2021/12/11 06:31:06;;;;;;;12.35;9.85;;;3.90;93.00;;;;;;5018633;28;20258;-78
2021/12/11 06:33:34;;;;;;;13.55;10.43;;;3.90;92.90;;;;;;5040017;28;20219;-78
2021/12/11 06:36:05;;;;;;;15.18;11.57;;;3.90;92.70;;;;;;5051033;28;20281;-79
2021/12/11 06:38:36;;;;;;;13.73;10.25;;;3.90;92.90;;;;;;5058185;28;20249;-79
2021/12/11 06:41:06;;;;;;;14.25;11.20;;;3.90;93.00;;;;;;5058115;28;20233;-78
2021/12/11 06:43:33;;;;;;;13.70;11.20;;;3.90;93.10;;;;;;5033888;28;20200;-79
2021/12/11 06:46:00;;;;;;;13.02;10.23;;;3.90;93.20;;;;;;5019521;28;20220;-77
2021/12/11 06:48:27;;;;;;;15.18;10.77;;;3.90;93.10;;;;;;5035291;28;20204;-79
2021/12/11 06:50:55;;;;;;;15.40;10.55;;;3.90;93.00;;;;;;5023463;28;20307;-78
2021/12/11 06:53:25;;;;;;;13.43;10.32;;;3.90;93.00;;;;;;5019191;28;20220;-78
2021/12/11 06:55:55;;;;;;;12.05;10.40;;;3.90;93.40;;;;;;5018702;28;20230;-78
2021/12/11 06:58:22;;;;;;;12.63;9.75;;;3.90;93.80;;;;;;5018072;28;20581;-78
2021/12/11 07:00:49;;;;;;;20.58;14.40;;;4.00;94.10;;;;;;5019191;28;20295;-76
2021/12/11 07:03:16;;;;;;;13.18;10.13;;;4.00;94.10;;;;;;5022426;28;20321;-78
2021/12/11 07:05:43;;;;;;;13.75;10.10;;;3.90;94.10;;;;;;5034507;28;20246;-76
2021/12/11 07:08:12;;;;;;;14.50;10.80;;;3.90;94.20;;;;;;5047481;28;20211;-78
2021/12/11 07:10:40;;;;;;;17.85;12.00;;;3.80;94.20;;;;;;5047408;28;20195;-78
2021/12/11 07:13:09;;;;;;;15.98;10.93;;;3.80;94.70;;;;;;5049070;28;20433;-77
2021/12/11 07:15:36;;;;;;;18.35;12.10;;;3.80;94.90;;;;;;5039441;28;20223;-77
2021/12/11 07:18:03;;;;;;;16.15;11.13;;;3.80;95.40;;;;;;5026740;28;20236;-79
2021/12/11 07:20:31;;;;;;;11.82;10.18;;;3.80;95.60;;;;;;5031947;28;20215;-77
2021/12/11 07:22:58;;;;;;;14.18;10.90;;;3.70;95.60;;;;;;5032052;28;20238;-79
2021/12/11 07:25:30;;;;;;;15.32;11.10;;;3.70;96.00;;;;;;5031312;28;20271;-78
2021/12/11 07:28:01;;;;;;;16.85;12.05;;;3.70;96.20;;;;;;5034550;28;20219;-78
2021/12/11 07:30:30;;;;;;;15.98;10.93;;;3.70;96.40;;;;;;5039095;28;20241;-78
2021/12/11 07:33:00;;;;;;;14.23;11.35;;;3.60;96.70;;;;;;5053078;28;20294;-78
2021/12/11 07:35:27;;;;;;;16.83;11.55;;;3.70;97.20;;;;;;5040620;28;20208;-78
2021/12/11 07:37:55;;;;;;;14.95;11.90;;;3.70;97.30;;;;;;5034132;28;20271;-78
2021/12/11 07:40:25;;;;;;;16.52;11.18;;;3.70;97.10;;;;;;5034016;28;20234;-77
2021/12/11 07:42:53;;;;;;;13.75;11.10;;;3.80;97.40;;;;;;5028545;28;20239;-77
2021/12/11 07:45:21;;;;;;;15.25;11.05;;;3.80;97.60;;;;;;5029020;28;20208;-77
2021/12/11 07:47:50;;;;;;;14.18;11.20;;;3.80;97.30;;;;;;5045587;28;20219;-78
2021/12/11 07:50:18;;;;;;;16.42;12.38;;;3.70;96.90;;;;;;5043783;28;20237;-77
2021/12/11 07:52:45;;;;;;;16.50;12.13;;;3.80;97.10;;;;;;5040230;28;20322;-78
2021/12/11 07:55:15;;;;;;;15.15;10.98;;;3.80;97.40;;;;;;5040636;28;20211;-78
2021/12/11 07:57:42;;;;;;;17.98;11.55;;;3.80;97.40;;;;;;5038383;28;20207;-77
2021/12/11 08:00:14;;;;;;;14.32;10.93;;;3.90;97.40;;;;;;5038379;28;20330;-78
2021/12/11 08:02:41;;;;;;;15.07;10.85;;;3.90;97.10;;;;;;5018387;28;20270;-78
2021/12/11 08:05:11;;;;;;;16.15;12.00;;;3.80;97.10;;;;;;5017233;28;20524;-78
2021/12/11 08:07:39;;;;;;;14.75;11.00;;;3.80;97.10;;;;;;5018854;28;20212;-79
2021/12/11 08:10:10;;;;;;;13.88;10.55;;;3.90;97.30;;;;;;5020329;28;20207;-78
2021/12/11 08:12:37;;;;;;;13.95;10.10;;;3.90;97.30;;;;;;5025304;28;20219;-80
2021/12/11 08:15:05;;;;;;;13.40;10.10;;;4.00;97.30;;;;;;5023637;28;20742;-78
2021/12/11 08:17:33;;;;;;;16.70;10.75;;;4.00;97.30;;;;;;5015272;28;20223;-79
2021/12/11 08:20:00;;;;;;;14.60;10.80;;;4.00;96.90;;;;;;5015948;28;20231;-79
2021/12/11 08:22:30;;;;;;;13.63;10.85;;;4.10;96.60;;;;;;5015723;28;20298;-78
2021/12/11 08:24:57;;;;;;;17.73;10.88;;;4.10;96.40;;;;;;5015637;28;20235;-78
2021/12/11 08:27:25;;;;;;;14.57;11.55;;;4.10;96.30;;;;;;5017312;28;20299;-78
2021/12/11 08:29:54;;;;;;;14.68;10.13;;;4.10;96.00;;;;;;5016089;28;20235;-78
2021/12/11 08:32:23;;;;;;;14.52;10.95;;;4.10;95.90;;;;;;5009318;28;20300;-78
2021/12/11 08:34:50;;;;;;;11.63;10.07;;;4.20;95.80;;;;;;5024234;28;20243;-79
2021/12/11 08:37:19;;;;;;;13.02;10.73;;;4.20;95.30;;;;;;5031152;28;20317;-76
2021/12/11 08:39:48;;;;;;;12.88;10.85;;;4.20;94.90;;;;;;5030782;28;20200;-78
2021/12/11 08:42:18;;;;;;;13.23;10.35;;;4.20;94.90;;;;;;5028506;28;20211;-79
2021/12/11 08:44:50;;;;;;;14.25;11.35;;;4.30;94.90;;;;;;5019537;28;20214;-78
2021/12/11 08:47:21;;;;;;;13.50;10.55;;;4.40;94.90;;;;;;5027693;28;20326;-80
2021/12/11 08:49:49;;;;;;;16.67;12.50;;;4.50;94.50;;;;;;5029565;28;20674;-78
2021/12/11 08:52:22;;;;;;;13.27;10.50;;;4.50;93.70;;;;;;5027526;28;20214;-77
2021/12/11 08:54:51;;;;;;;14.65;11.68;;;4.50;92.80;;;;;;5018512;28;20232;-78
2021/12/11 08:57:22;;;;;;;14.68;11.63;;;4.40;92.50;;;;;;5028479;28;20733;-78
2021/12/11 08:59:52;;;;;;;15.50;12.48;;;4.50;93.10;;;;;;5022283;28;20262;-79
2021/12/11 09:02:22;;;;;;;14.63;10.98;;;4.60;92.70;;;;;;5019987;28;20268;-78
2021/12/11 09:04:55;;;;;;;13.32;10.63;;;4.70;91.80;;;;;;5018137;28;20246;-79
2021/12/11 09:07:27;;;;;;;13.68;11.73;;;4.70;91.50;;;;;;5010021;28;20231;-79
2021/12/11 09:09:59;;;;;;;12.63;10.88;;;4.80;91.50;;;;;;5016236;28;20218;-79
2021/12/11 09:12:30;;;;;;;13.00;10.48;;;4.80;91.30;;;;;;5014802;28;20216;-78
2021/12/11 09:15:01;;;;;;;15.57;12.77;;;4.90;90.90;;;;;;5016245;28;20310;-79
2021/12/11 09:17:33;;;;;;;15.98;11.65;;;4.90;89.50;;;;;;5014548;28;20242;-78
2021/12/11 09:20:07;;;;;;;15.00;10.85;;;4.90;89.00;;;;;;5028902;28;20195;-78
2021/12/11 09:22:37;;;;;;;14.70;11.68;;;4.90;87.40;;;;;;5031779;28;20233;-77
2021/12/11 09:25:12;;;;;;;14.90;11.65;;;4.80;85.40;;;;;;5015150;28;20200;-80
2021/12/11 09:27:46;;;;;;;18.27;13.02;;;4.90;85.40;;;;;;5006646;28;20223;-78
2021/12/11 09:30:17;;;;;;;15.25;12.38;;;5.00;84.20;;;;;;5015533;28;20199;-79
2021/12/11 09:32:48;;;;;;;13.68;12.15;;;5.00;83.60;;;;;;5029239;28;20693;-79
2021/12/11 09:35:22;;;;;;;13.70;11.02;;;5.00;82.40;;;;;;5037990;28;20566;-79
2021/12/11 09:37:52;;;;;;;13.30;11.50;;;4.90;82.30;;;;;;5037278;28;20191;-79
2021/12/11 09:40:43;;;;;;;12.27;10.75;;;4.90;82.70;;;;;;5023938;28;20563;-79
2021/12/11 09:43:35;;;;;;;15.93;11.80;;;5.00;82.60;;;;;;5018323;28;20664;-78
2021/12/11 09:46:05;;;;;;;13.65;11.32;;;5.10;81.60;;;;;;5040147;28;20246;-78
2021/12/11 09:48:32;;;;;;;14.13;11.13;;;5.20;81.60;;;;;;5043828;28;20210;-77
2021/12/11 09:51:04;;;;;;;14.02;11.32;;;5.20;80.70;;;;;;5027744;28;20242;-79
2021/12/11 09:53:37;;;;;;;14.60;11.13;;;5.20;79.60;;;;;;5027635;28;20238;-80
2021/12/11 09:56:09;;;;;;;15.55;11.77;;;5.20;79.30;;;;;;5044143;28;20762;-78
2021/12/11 09:58:38;;;;;;;16.05;11.07;;;5.20;79.90;;;;;;5043468;28;20318;-79
2021/12/11 10:01:09;;;;;;;13.93;10.93;;;5.20;78.90;;;;;;5041363;28;20229;-78
2021/12/11 10:03:41;;;;;;;15.68;12.60;;;5.10;78.30;;;;;;5042228;28;20188;-77
2021/12/11 10:06:26;;;;;;;16.30;12.48;;;5.00;78.70;;;;;;5035188;28;20224;-77
2021/12/11 10:09:08;;;;;;;15.25;12.20;;;5.00;78.80;;;;;;5027625;28;20323;-78
2021/12/11 10:11:36;;;;;;;17.77;13.20;;;4.90;79.80;;;;;;5022190;28;20219;-78
2021/12/11 10:14:07;;;;;;;17.42;13.70;;;4.90;80.40;;;;;;5025335;28;20234;-77
2021/12/11 10:16:37;;;;;;;15.52;12.60;;;4.90;81.30;;;;;;5044322;28;20253;-77
2021/12/11 10:19:05;;;;;;;15.55;12.27;;;5.00;81.40;;;;;;5052746;28;20222;-78
2021/12/11 10:21:35;;;;;;;19.48;13.10;;;5.10;81.50;;;;;;5049127;28;20191;-75
2021/12/11 10:24:09;;;;;;;13.25;11.48;;;5.10;81.20;;;;;;5053761;28;20241;-79
2021/12/11 10:26:36;;;;;;;17.67;13.35;;;5.20;80.90;;;;;;5049014;28;20275;-77
2021/12/11 10:29:12;;;;;;;16.33;12.77;;;5.20;80.00;;;;;;5045127;28;20203;-78
2021/12/11 10:31:42;;;;;;;14.48;12.00;;;5.30;79.80;;;;;;5045479;28;20297;-77
2021/12/11 10:34:13;;;;;;;17.00;13.57;;;5.40;79.40;;;;;;5045228;28;20246;-77
2021/12/11 10:36:43;;;;;;;16.20;11.57;;;5.60;78.10;;;;;;5040893;28;20262;-77
2021/12/11 10:39:12;;;;;;;16.27;12.27;;;5.80;77.60;;;;;;5041472;28;20226;-76
2021/12/11 10:41:40;;;;;;;14.15;11.13;;;6.10;76.10;;;;;;5039992;28;20633;-76
2021/12/11 10:44:12;;;;;;;16.92;11.48;;;6.30;74.10;;;;;;5040911;28;20207;-75
2021/12/11 10:46:43;;;;;;;15.48;11.05;;;6.50;73.00;;;;;;5042799;28;20289;-77
2021/12/11 10:49:13;;;;;;;14.35;11.60;;;6.70;71.00;;;;;;5043258;28;20207;-77
2021/12/11 10:51:44;;;;;;;15.57;11.07;;;6.90;69.20;;;;;;5043457;28;20358;-76
2021/12/11 10:54:13;;;;;;;13.98;11.27;;;7.00;67.20;;;;;;5043379;28;20247;-76
2021/12/11 10:56:41;;;;;;;13.25;10.93;;;7.10;66.10;;;;;;5043252;28;20231;-77
2021/12/11 10:59:13;;;;;;;13.35;11.85;;;7.20;66.90;;;;;;5048359;28;20235;-77
2021/12/11 11:01:44;;;;;;;13.02;10.57;;;7.30;66.30;;;;;;5047967;28;20192;-77
2021/12/11 11:04:14;;;;;;;14.23;10.80;;;7.30;64.30;;;;;;5049767;28;20246;-79
2021/12/11 11:06:42;;;;;;;14.10;10.98;;;7.10;65.40;;;;;;5044723;28;20250;-77
2021/12/11 11:09:10;;;;;;;13.50;10.40;;;7.20;65.20;;;;;;5036947;28;20274;-76
2021/12/11 11:11:39;;;;;;;12.73;10.50;;;7.10;64.00;;;;;;5031134;28;20254;-78
2021/12/11 11:14:08;;;;;;;12.75;10.50;;;7.00;63.60;;;;;;5033135;28;20238;-75
2021/12/11 11:16:40;;;;;;;7.72;6.93;;;6.80;64.60;;;;;;5032842;28;20289;-78
2021/12/11 11:19:08;;;;;;;7.05;5.80;;;6.70;61.30;;;;;;5035639;28;20204;-78
2021/12/11 11:21:38;;;;;;;6.95;5.55;;;6.50;58.80;;;;;;5035299;28;20259;-77
2021/12/11 11:24:07;;;;;;;7.07;5.60;;;6.30;59.90;;;;;;5034365;28;20315;-78
2021/12/11 11:26:37;;;;;;;10.45;6.07;;;6.10;60.10;;;;;;5026311;28;20236;-78
2021/12/11 11:29:07;;;;;;;7.30;6.40;;;6.10;60.80;;;;;;5036095;28;20246;-78
2021/12/11 11:31:38;;;;;;;7.47;5.47;;;6.10;60.80;;;;;;5035543;28;20188;-77
2021/12/11 11:34:10;;;;;;;6.85;5.35;;;6.10;60.30;;;;;;5035144;28;20212;-78
2021/12/11 11:36:38;;;;;;;7.28;6.07;;;6.00;60.30;;;;;;5034136;28;20228;-78
2021/12/11 11:39:10;;;;;;;7.70;5.65;;;6.10;60.70;;;;;;5033468;28;20350;-78
2021/12/11 11:41:40;;;;;;;7.25;6.18;;;6.00;61.20;;;;;;5034420;28;20211;-77
2021/12/11 11:44:09;;;;;;;6.47;5.88;;;6.00;61.80;;;;;;5036158;28;20202;-77
2021/12/11 11:46:40;;;;;;;7.85;5.72;;;5.90;61.90;;;;;;5036104;28;20280;-76
2021/12/11 11:49:09;;;;;;;7.50;5.50;;;5.80;61.40;;;;;;5032624;28;20219;-78
2021/12/11 11:51:41;;;;;;;6.43;5.32;;;5.80;60.50;;;;;;5025047;28;20290;-77
2021/12/11 11:54:10;;;;;;;10.10;5.80;;;5.90;60.60;;;;;;5024977;28;20316;-78
2021/12/11 11:56:41;;;;;;;7.63;5.32;;;5.90;60.00;;;;;;5025660;28;20258;-78
2021/12/11 11:59:09;;;;;;;8.63;5.97;;;5.90;59.80;;;;;;5023370;28;20241;-78
2021/12/11 12:01:41;;;;;;;6.32;5.63;;;5.90;60.30;;;;;;5024931;28;20227;-79
2021/12/11 12:04:11;;;;;;;6.25;5.70;;;5.80;60.20;;;;;;5023567;28;20216;-77
2021/12/11 12:06:39;;;;;;;8.68;6.22;;;5.70;60.50;;;;;;5024290;28;20228;-78
2021/12/11 12:09:12;;;;;;;7.97;6.18;;;5.60;61.10;;;;;;5031175;28;20219;-79
2021/12/11 12:11:40;;;;;;;10.65;6.25;;;5.60;61.70;;;;;;5028628;28;20207;-78
2021/12/11 12:14:13;;;;;;;7.30;6.47;;;5.60;61.90;;;;;;5024966;28;20220;-79
2021/12/11 12:16:45;;;;;;;6.18;5.40;;;5.60;61.80;;;;;;5026139;28;20238;-79
2021/12/11 12:19:13;;;;;;;9.23;6.35;;;5.60;60.10;;;;;;5026669;28;20333;-79
2021/12/11 12:21:43;;;;;;;7.57;6.05;;;5.60;60.00;;;;;;5028658;28;20242;-79
2021/12/11 12:24:10;;;;;;;8.13;6.60;;;5.60;60.20;;;;;;5035070;28;20225;-79
2021/12/11 12:26:39;;;;;;;9.77;7.00;;;5.60;60.40;;;;;;5042240;28;20636;-79
2021/12/11 12:29:08;;;;;;;8.55;6.70;;;5.60;60.80;;;;;;5054667;28;20270;-79
2021/12/11 12:31:39;;;;;;;7.95;6.10;;;5.80;61.20;;;;;;5043261;28;20196;-78
2021/12/11 12:34:10;;;;;;;10.75;6.07;;;5.80;60.30;;;;;;5030925;28;20279;-79
2021/12/11 12:36:38;;;;;;;7.45;6.40;;;5.80;59.50;;;;;;5031649;28;20274;-79
2021/12/11 12:39:07;;;;;;;7.70;5.55;;;5.80;59.60;;;;;;5032093;28;20198;-76
2021/12/11 12:41:38;;;;;;;8.23;6.63;;;5.80;59.40;;;;;;5035212;28;20214;-78
2021/12/11 12:44:18;;;;;;;10.50;6.70;;;5.90;59.30;;;;;;5041941;28;20183;-77
2021/12/11 12:46:50;;;;;;;8.50;6.30;;;5.80;59.20;;;;;;5022739;28;20295;-77
2021/12/11 12:49:20;;;;;;;8.38;6.60;;;6.00;59.60;;;;;;5045211;28;20226;-78
2021/12/11 12:51:50;;;;;;;8.48;7.10;;;6.10;59.20;;;;;;5027691;28;20298;-78
2021/12/11 12:54:20;;;;;;;8.18;6.07;;;6.30;58.60;;;;;;5020905;28;20616;-79
2021/12/11 12:56:52;;;;;;;9.25;5.95;;;6.40;58.20;;;;;;5026638;28;20306;-77
2021/12/11 12:59:22;;;;;;;9.93;6.90;;;6.30;56.50;;;;;;5042635;28;20207;-79
2021/12/11 13:01:55;;;;;;;8.82;6.72;;;6.20;57.00;;;;;;5039459;28;20215;-78
2021/12/11 13:04:27;;;;;;;7.97;6.68;;;6.10;56.30;;;;;;5040516;28;20238;-79
2021/12/11 13:06:57;;;;;;;10.80;7.13;;;6.00;56.00;;;;;;5027880;28;20231;-78
2021/12/11 13:09:29;;;;;;;10.25;7.07;;;5.90;55.10;;;;;;5021063;28;20227;-77
2021/12/11 13:12:01;;;;;;;9.25;5.90;;;5.90;55.40;;;;;;5022203;28;20200;-78
2021/12/11 13:14:31;;;;;;;7.25;6.47;;;5.90;54.90;;;;;;5027363;28;20215;-80
2021/12/11 13:17:02;;;;;;;9.65;7.00;;;5.90;55.40;;;;;;5026099;28;20315;-77
2021/12/11 13:19:35;;;;;;;9.32;6.93;;;5.90;54.70;;;;;;5026343;28;20275;-77
2021/12/11 13:22:07;;;;;;;7.80;5.68;;;6.00;54.70;;;;;;5022393;28;20216;-78
2021/12/11 13:24:36;;;;;;;7.32;5.90;;;6.20;53.90;;;;;;5029036;28;20307;-77
2021/12/11 13:27:07;;;;;;;7.35;6.07;;;6.20;54.00;;;;;;5031834;28;20244;-76
2021/12/11 13:29:39;;;;;;;8.73;6.45;;;6.40;53.00;;;;;;5028416;28;20235;-78
2021/12/11 13:32:14;;;;;;;10.77;6.65;;;6.40;53.10;;;;;;5024406;28;20271;-78
2021/12/11 13:34:46;;;;;;;7.97;6.78;;;6.50;53.30;;;;;;5024876;28;20239;-77
2021/12/11 13:37:16;;;;;;;9.73;7.15;;;6.40;52.90;;;;;;5028915;28;20901;-77
2021/12/11 13:39:45;;;;;;;7.55;6.25;;;6.40;53.70;;;;;;5040415;28;20204;-77
2021/12/11 13:42:19;;;;;;;8.07;5.95;;;6.40;53.20;;;;;;5028157;28;20219;-79
2021/12/11 13:44:51;;;;;;;7.53;6.10;;;6.40;53.30;;;;;;5029856;28;20219;-78
2021/12/11 13:47:22;;;;;;;8.23;6.25;;;6.40;54.00;;;;;;5029190;28;20228;-78
2021/12/11 13:49:52;;;;;;;7.22;6.45;;;6.40;53.60;;;;;;5029083;28;20215;-77
2021/12/11 13:52:20;;;;;;;8.07;6.13;;;6.40;53.50;;;;;;5033906;28;20196;-76